createdAt,value
2023-02-27T00:00:57.526Z,0
2023-02-27T00:01:54.449Z,0
2023-02-27T00:02:54.897Z,0
2023-02-27T00:03:54.836Z,0
2023-02-27T00:04:54.732Z,0
2023-02-27T00:05:57.563Z,0
2023-02-27T00:06:54.746Z,0
2023-02-27T00:07:54.776Z,0
2023-02-27T00:08:54.984Z,0
2023-02-27T00:09:54.685Z,0
2023-02-27T00:10:54.723Z,0
2023-02-27T00:11:54.702Z,0
2023-02-27T00:12:54.660Z,0
2023-02-27T00:13:54.704Z,0
2023-02-27T00:14:54.681Z,0
2023-02-27T00:15:55.155Z,0
2023-02-27T00:16:57.504Z,0
2023-02-27T00:17:54.788Z,0
2023-02-27T00:18:54.667Z,0
2023-02-27T00:19:54.729Z,0
2023-02-27T00:20:54.727Z,0
2023-02-27T00:21:54.734Z,0
2023-02-27T00:22:54.733Z,0
2023-02-27T00:23:54.691Z,0
2023-02-27T00:24:54.725Z,0
2023-02-27T00:25:54.719Z,0
2023-02-27T00:26:54.699Z,0
2023-02-27T00:27:54.707Z,0
2023-02-27T00:28:54.708Z,0
2023-02-27T00:29:54.736Z,0
2023-02-27T00:30:55.024Z,0
2023-02-27T00:31:55.162Z,0
2023-02-27T00:32:57.838Z,0
2023-02-27T00:33:54.812Z,0
2023-02-27T00:34:54.725Z,0
2023-02-27T00:35:54.720Z,0
2023-02-27T00:36:54.716Z,0
2023-02-27T00:37:54.734Z,0
2023-02-27T00:38:54.716Z,0
2023-02-27T00:39:54.713Z,0
2023-02-27T00:40:54.747Z,0
2023-02-27T00:41:54.701Z,0
2023-02-27T00:42:54.738Z,0
2023-02-27T00:43:57.586Z,0
2023-02-27T00:44:54.757Z,0
2023-02-27T00:45:54.760Z,0
2023-02-27T00:46:54.920Z,0
2023-02-27T00:47:54.850Z,0
2023-02-27T00:48:57.877Z,0
2023-02-27T00:49:54.788Z,0
2023-02-27T00:50:54.749Z,0
2023-02-27T00:51:54.729Z,0
2023-02-27T00:52:54.790Z,0
2023-02-27T00:53:54.773Z,0
2023-02-27T00:54:54.728Z,0
2023-02-27T00:55:54.725Z,0
2023-02-27T00:56:54.761Z,0
2023-02-27T00:57:55.042Z,0
2023-02-27T00:58:54.760Z,0
2023-02-27T00:59:57.837Z,0
2023-02-27T01:00:55.043Z,0
2023-02-27T01:01:54.753Z,0
2023-02-27T01:02:55.101Z,0
2023-02-27T01:03:54.772Z,0
2023-02-27T01:04:54.835Z,0
2023-02-27T01:05:54.850Z,0
2023-02-27T01:06:54.786Z,0
2023-02-27T01:07:54.769Z,0
2023-02-27T01:08:54.765Z,0
2023-02-27T01:09:54.808Z,0
2023-02-27T01:10:57.600Z,0
2023-02-27T01:11:54.805Z,0
2023-02-27T01:12:54.765Z,0
2023-02-27T01:13:54.789Z,0
2023-02-27T01:14:54.762Z,0
2023-02-27T01:15:54.837Z,0
2023-02-27T01:16:54.785Z,0
2023-02-27T01:17:54.835Z,0
2023-02-27T01:18:54.823Z,0
2023-02-27T01:19:54.767Z,0
2023-02-27T01:20:54.847Z,0
2023-02-27T01:21:57.816Z,0
2023-02-27T01:22:54.785Z,0
2023-02-27T01:23:54.832Z,0
2023-02-27T01:24:54.763Z,0
2023-02-27T01:25:54.943Z,0
2023-02-27T01:26:54.993Z,0
2023-02-27T01:27:54.840Z,0
2023-02-27T01:28:54.804Z,0
2023-02-27T01:29:54.782Z,0
2023-02-27T01:30:55.466Z,0
2023-02-27T01:31:55.578Z,0
2023-02-27T01:32:58.064Z,0
2023-02-27T01:33:55.151Z,0
2023-02-27T01:34:54.837Z,0
2023-02-27T01:35:54.869Z,0
2023-02-27T01:36:54.887Z,0
2023-02-27T01:37:55.061Z,0
2023-02-27T01:38:54.817Z,0
2023-02-27T01:39:54.822Z,0
2023-02-27T01:40:54.837Z,0
2023-02-27T01:41:54.861Z,0
2023-02-27T01:42:54.830Z,0
2023-02-27T01:43:57.665Z,0
2023-02-27T01:44:54.825Z,0
2023-02-27T01:45:55.097Z,0
2023-02-27T01:46:54.832Z,0
2023-02-27T01:47:54.969Z,0
2023-02-27T01:48:57.912Z,0
2023-02-27T01:49:54.845Z,0
2023-02-27T01:50:54.874Z,0
2023-02-27T01:51:54.879Z,0
2023-02-27T01:52:54.844Z,0
2023-02-27T01:53:54.874Z,0
2023-02-27T01:54:57.583Z,0
2023-02-27T01:55:54.868Z,0
2023-02-27T01:56:54.837Z,0
2023-02-27T01:57:54.875Z,0
2023-02-27T01:58:54.841Z,0
2023-02-27T01:59:57.589Z,0
2023-02-27T02:00:55.170Z,0
2023-02-27T02:01:54.884Z,0
2023-02-27T02:02:54.872Z,0
2023-02-27T02:03:54.877Z,0
2023-02-27T02:04:54.838Z,0
2023-02-27T02:05:57.826Z,0
2023-02-27T02:06:54.871Z,0
2023-02-27T02:07:54.868Z,0
2023-02-27T02:08:54.853Z,0
2023-02-27T02:09:54.866Z,0
2023-02-27T02:10:58.162Z,0
2023-02-27T02:11:54.908Z,0
2023-02-27T02:12:54.862Z,0
2023-02-27T02:13:54.892Z,0
2023-02-27T02:14:54.849Z,0
2023-02-27T02:15:54.883Z,0
2023-02-27T02:16:58.411Z,0
2023-02-27T02:17:54.864Z,0
2023-02-27T02:18:54.855Z,0
2023-02-27T02:19:54.935Z,0
2023-02-27T02:20:54.865Z,0
2023-02-27T02:21:58.069Z,0
2023-02-27T02:22:54.863Z,0
2023-02-27T02:23:54.930Z,0
2023-02-27T02:24:54.887Z,0
2023-02-27T02:25:54.951Z,0
2023-02-27T02:26:54.895Z,0
2023-02-27T02:27:57.676Z,0
2023-02-27T02:28:54.946Z,0
2023-02-27T02:29:54.916Z,0
2023-02-27T02:30:55.539Z,0
2023-02-27T02:31:55.832Z,0
2023-02-27T02:33:03.614Z,0
2023-02-27T02:33:54.937Z,0
2023-02-27T02:34:54.910Z,0
2023-02-27T02:35:54.944Z,0
2023-02-27T02:36:54.944Z,0
2023-02-27T02:37:54.913Z,0
2023-02-27T02:38:54.975Z,0
2023-02-27T02:39:54.905Z,0
2023-02-27T02:40:54.952Z,0
2023-02-27T02:41:54.948Z,0
2023-02-27T02:42:57.797Z,0
2023-02-27T02:43:57.917Z,0
2023-02-27T02:44:54.929Z,0
2023-02-27T02:45:55.138Z,0
2023-02-27T02:46:54.912Z,0
2023-02-27T02:47:54.896Z,0
2023-02-27T02:48:54.936Z,0
2023-02-27T02:49:54.926Z,0
2023-02-27T02:50:54.950Z,0
2023-02-27T02:51:54.956Z,0
2023-02-27T02:52:54.960Z,0
2023-02-27T02:53:54.995Z,0
2023-02-27T02:54:54.948Z,0
2023-02-27T02:55:54.951Z,0
2023-02-27T02:56:54.918Z,0
2023-02-27T02:57:54.926Z,0
2023-02-27T02:58:54.981Z,0
2023-02-27T02:59:58.042Z,0
2023-02-27T03:00:54.962Z,0
2023-02-27T03:01:55.224Z,0
2023-02-27T03:02:54.968Z,0
2023-02-27T03:03:54.947Z,0
2023-02-27T03:04:54.944Z,0
2023-02-27T03:05:54.950Z,0
2023-02-27T03:06:54.957Z,0
2023-02-27T03:07:55.429Z,0
2023-02-27T03:08:54.936Z,0
2023-02-27T03:09:54.964Z,0
2023-02-27T03:10:58.063Z,0
2023-02-27T03:11:54.968Z,0
2023-02-27T03:12:55.002Z,0
2023-02-27T03:13:54.991Z,0
2023-02-27T03:14:54.964Z,0
2023-02-27T03:15:58.108Z,0
2023-02-27T03:16:55.019Z,0
2023-02-27T03:17:54.984Z,0
2023-02-27T03:18:55.109Z,0
2023-02-27T03:19:54.948Z,0
2023-02-27T03:20:54.992Z,0
2023-02-27T03:21:57.855Z,0
2023-02-27T03:22:55.008Z,0
2023-02-27T03:23:54.990Z,0
2023-02-27T03:24:54.996Z,0
2023-02-27T03:25:56.636Z,0
2023-02-27T03:26:58.075Z,0
2023-02-27T03:27:54.958Z,0
2023-02-27T03:28:54.981Z,0
2023-02-27T03:29:55.054Z,0
2023-02-27T03:30:55.492Z,0
2023-02-27T03:31:55.448Z,0
2023-02-27T03:32:54.966Z,0
2023-02-27T03:33:55.016Z,0
2023-02-27T03:34:55.008Z,0
2023-02-27T03:35:54.846Z,0
2023-02-27T03:36:55.037Z,0
2023-02-27T03:37:58.080Z,0
2023-02-27T03:38:54.977Z,0
2023-02-27T03:39:55.023Z,0
2023-02-27T03:40:55.019Z,0
2023-02-27T03:41:55.063Z,0
2023-02-27T03:42:55.016Z,0
2023-02-27T03:43:54.987Z,0
2023-02-27T03:44:56.936Z,0
2023-02-27T03:45:55.026Z,0
2023-02-27T03:46:55.006Z,0
2023-02-27T03:47:55.009Z,0
2023-02-27T03:48:58.171Z,0
2023-02-27T03:49:55.012Z,0
2023-02-27T03:50:54.982Z,0
2023-02-27T03:51:55.081Z,0
2023-02-27T03:52:55.001Z,0
2023-02-27T03:53:55.001Z,0
2023-02-27T03:54:55.031Z,0
2023-02-27T03:55:55.026Z,0
2023-02-27T03:56:55.043Z,0
2023-02-27T03:57:55.065Z,0
2023-02-27T03:58:55.035Z,0
2023-02-27T03:59:57.784Z,0
2023-02-27T04:00:55.028Z,0
2023-02-27T04:01:55.220Z,0
2023-02-27T04:02:55.271Z,0
2023-02-27T04:03:55.007Z,0
2023-02-27T04:04:58.062Z,0
2023-02-27T04:05:55.036Z,0
2023-02-27T04:06:55.051Z,0
2023-02-27T04:07:55.073Z,0
2023-02-27T04:08:55.028Z,0
2023-02-27T04:09:55.048Z,0
2023-02-27T04:10:58.148Z,0
2023-02-27T04:11:55.068Z,0
2023-02-27T04:12:55.059Z,0
2023-02-27T04:13:55.147Z,0
2023-02-27T04:14:55.054Z,0
2023-02-27T04:15:58.269Z,0
2023-02-27T04:16:55.096Z,0
2023-02-27T04:17:55.078Z,0
2023-02-27T04:18:57.484Z,0
2023-02-27T04:19:55.069Z,0
2023-02-27T04:20:55.099Z,0
2023-02-27T04:21:57.854Z,0
2023-02-27T04:22:55.076Z,0
2023-02-27T04:23:55.184Z,0
2023-02-27T04:24:55.117Z,0
2023-02-27T04:25:55.092Z,0
2023-02-27T04:26:58.149Z,0
2023-02-27T04:27:55.087Z,0
2023-02-27T04:28:55.064Z,0
2023-02-27T04:29:55.278Z,0
2023-02-27T04:30:55.452Z,0
2023-02-27T04:31:56.189Z,0
2023-02-27T04:32:58.285Z,0
2023-02-27T04:33:55.122Z,0
2023-02-27T04:34:55.090Z,0
2023-02-27T04:35:55.095Z,0
2023-02-27T04:36:55.102Z,0
2023-02-27T04:37:57.940Z,0
2023-02-27T04:38:55.099Z,0
2023-02-27T04:39:55.137Z,0
2023-02-27T04:40:55.086Z,0
2023-02-27T04:41:55.110Z,0
2023-02-27T04:42:55.111Z,0
2023-02-27T04:43:57.894Z,0
2023-02-27T04:44:55.128Z,0
2023-02-27T04:45:55.459Z,0
2023-02-27T04:46:55.197Z,0
2023-02-27T04:47:55.126Z,0
2023-02-27T04:48:55.310Z,0
2023-02-27T04:49:55.124Z,0
2023-02-27T04:50:55.110Z,0
2023-02-27T04:51:55.165Z,0
2023-02-27T04:52:55.156Z,0
2023-02-27T04:53:55.109Z,0
2023-02-27T04:54:57.954Z,0
2023-02-27T04:55:55.131Z,0
2023-02-27T04:56:55.141Z,0
2023-02-27T04:57:55.132Z,0
2023-02-27T04:58:55.142Z,0
2023-02-27T04:59:57.980Z,0
2023-02-27T05:00:55.139Z,0
2023-02-27T05:01:55.686Z,0
2023-02-27T05:02:55.377Z,0
2023-02-27T05:03:55.239Z,0
2023-02-27T05:04:55.126Z,0
2023-02-27T05:05:55.142Z,0
2023-02-27T05:06:55.133Z,0
2023-02-27T05:07:55.135Z,0
2023-02-27T05:08:55.191Z,0
2023-02-27T05:09:55.144Z,0
2023-02-27T05:10:58.269Z,0
2023-02-27T05:11:55.158Z,0
2023-02-27T05:12:55.179Z,0
2023-02-27T05:13:55.151Z,0
2023-02-27T05:14:55.186Z,0
2023-02-27T05:15:55.285Z,0
2023-02-27T05:16:55.233Z,0
2023-02-27T05:17:55.463Z,0
2023-02-27T05:18:55.142Z,0
2023-02-27T05:19:55.283Z,0
2023-02-27T05:20:55.145Z,0
2023-02-27T05:21:55.202Z,0
2023-02-27T05:22:55.155Z,0
2023-02-27T05:23:55.158Z,0
2023-02-27T05:24:55.178Z,0
2023-02-27T05:25:55.166Z,0
2023-02-27T05:26:58.316Z,0
2023-02-27T05:27:55.163Z,0
2023-02-27T05:28:55.156Z,0
2023-02-27T05:29:55.170Z,0
2023-02-27T05:30:55.206Z,0
2023-02-27T05:31:55.698Z,0
2023-02-27T05:32:55.203Z,0
2023-02-27T05:33:55.175Z,0
2023-02-27T05:34:55.180Z,0
2023-02-27T05:35:55.461Z,0
2023-02-27T05:36:55.164Z,0
2023-02-27T05:37:58.386Z,0
2023-02-27T05:38:55.263Z,0
2023-02-27T05:39:55.162Z,0
2023-02-27T05:40:55.247Z,0
2023-02-27T05:41:55.285Z,0
2023-02-27T05:42:58.221Z,0
2023-02-27T05:43:55.197Z,0
2023-02-27T05:44:55.186Z,4
2023-02-27T05:45:55.453Z,0
2023-02-27T05:46:55.218Z,0
2023-02-27T05:47:55.252Z,0
2023-02-27T05:48:57.944Z,0
2023-02-27T05:49:55.183Z,4
2023-02-27T05:50:56.202Z,4
2023-02-27T05:51:57.108Z,0
2023-02-27T05:52:55.278Z,4
2023-02-27T05:53:58.339Z,4
2023-02-27T05:54:58.590Z,4
2023-02-27T05:55:55.228Z,8
2023-02-27T05:56:55.251Z,8
2023-02-27T05:57:55.278Z,8
2023-02-27T05:58:55.235Z,8
2023-02-27T05:59:55.226Z,8
2023-02-27T06:00:55.224Z,8
2023-02-27T06:01:55.370Z,8
2023-02-27T06:02:55.248Z,16
2023-02-27T06:03:55.205Z,16
2023-02-27T06:04:58.287Z,16
2023-02-27T06:05:55.271Z,16
2023-02-27T06:06:55.251Z,20
2023-02-27T06:07:55.232Z,20
2023-02-27T06:08:55.227Z,20
2023-02-27T06:09:55.304Z,20
2023-02-27T06:10:55.230Z,24
2023-02-27T06:11:55.274Z,24
2023-02-27T06:12:55.326Z,28
2023-02-27T06:13:55.235Z,28
2023-02-27T06:14:55.241Z,32
2023-02-27T06:15:58.076Z,36
2023-02-27T06:16:55.524Z,36
2023-02-27T06:17:55.271Z,40
2023-02-27T06:18:55.300Z,40
2023-02-27T06:19:55.261Z,44
2023-02-27T06:20:55.262Z,48
2023-02-27T06:21:55.260Z,48
2023-02-27T06:22:55.304Z,52
2023-02-27T06:23:55.261Z,52
2023-02-27T06:24:55.235Z,56
2023-02-27T06:25:55.325Z,56
2023-02-27T06:26:58.478Z,64
2023-02-27T06:27:55.300Z,68
2023-02-27T06:28:55.293Z,72
2023-02-27T06:29:55.245Z,76
2023-02-27T06:30:55.424Z,80
2023-02-27T06:31:58.501Z,80
2023-02-27T06:32:55.258Z,84
2023-02-27T06:33:55.295Z,92
2023-02-27T06:34:55.301Z,96
2023-02-27T06:35:55.632Z,100
2023-02-27T06:36:55.276Z,104
2023-02-27T06:37:58.122Z,108
2023-02-27T06:38:55.280Z,112
2023-02-27T06:39:55.336Z,116
2023-02-27T06:40:55.253Z,120
2023-02-27T06:41:55.284Z,124
2023-02-27T06:42:59.196Z,128
2023-02-27T06:43:55.258Z,140
2023-02-27T06:44:55.290Z,188
2023-02-27T06:45:55.415Z,348
2023-02-27T06:46:55.266Z,440
2023-02-27T06:47:55.422Z,500
2023-02-27T06:48:58.298Z,512
2023-02-27T06:49:55.285Z,592
2023-02-27T06:50:55.146Z,664
2023-02-27T06:51:55.273Z,588
2023-02-27T06:52:55.395Z,440
2023-02-27T06:53:58.429Z,368
2023-02-27T06:54:55.272Z,492
2023-02-27T06:55:55.277Z,584
2023-02-27T06:56:55.339Z,664
2023-02-27T06:57:55.196Z,776
2023-02-27T06:58:55.299Z,800
2023-02-27T06:59:58.222Z,1092
2023-02-27T07:00:55.306Z,1260
2023-02-27T07:01:55.289Z,1120
2023-02-27T07:02:55.357Z,872
2023-02-27T07:03:56.382Z,880
2023-02-27T07:04:58.746Z,932
2023-02-27T07:05:55.402Z,744
2023-02-27T07:07:43.269Z,928
2023-02-27T07:09:13.021Z,900
2023-02-27T07:09:55.510Z,920
2023-02-27T07:10:58.008Z,944
2023-02-27T07:11:55.319Z,1008
2023-02-27T07:12:55.454Z,1004
2023-02-27T07:13:55.339Z,896
2023-02-27T07:14:55.328Z,876
2023-02-27T07:15:58.636Z,832
2023-02-27T07:16:55.325Z,768
2023-02-27T07:17:55.426Z,752
2023-02-27T07:18:55.366Z,832
2023-02-27T07:19:55.335Z,1076
2023-02-27T07:20:55.337Z,1448
2023-02-27T07:21:58.348Z,1668
2023-02-27T07:22:55.434Z,1708
2023-02-27T07:23:55.395Z,1728
2023-02-27T07:24:55.361Z,1732
2023-02-27T07:25:55.346Z,1740
2023-02-27T07:26:58.375Z,1732
2023-02-27T07:27:55.447Z,1732
2023-02-27T07:28:55.339Z,1736
2023-02-27T07:29:55.356Z,1732
2023-02-27T07:30:55.623Z,1732
2023-02-27T07:31:55.650Z,1736
2023-02-27T07:32:55.400Z,1736
2023-02-27T07:33:55.337Z,1736
2023-02-27T07:34:55.482Z,1732
2023-02-27T07:35:55.853Z,1724
2023-02-27T07:36:55.396Z,1720
2023-02-27T07:37:56.986Z,1748
2023-02-27T07:38:55.406Z,1720
2023-02-27T07:39:55.355Z,1740
2023-02-27T07:40:55.381Z,1712
2023-02-27T07:41:55.367Z,1716
2023-02-27T07:42:57.729Z,1708
2023-02-27T07:43:55.338Z,1708
2023-02-27T07:44:55.385Z,1700
2023-02-27T07:45:55.395Z,1696
2023-02-27T07:46:55.913Z,1688
2023-02-27T07:47:55.455Z,1684
2023-02-27T07:48:55.367Z,1688
2023-02-27T07:49:55.414Z,1680
2023-02-27T07:50:55.387Z,1692
2023-02-27T07:51:55.409Z,1692
2023-02-27T07:52:55.469Z,1688
2023-02-27T07:53:58.516Z,1684
2023-02-27T07:54:55.399Z,1696
2023-02-27T07:55:55.416Z,1688
2023-02-27T07:56:55.423Z,1688
2023-02-27T07:57:55.388Z,1680
2023-02-27T07:58:55.989Z,1680
2023-02-27T07:59:55.429Z,1676
2023-02-27T08:00:55.421Z,1676
2023-02-27T08:01:55.561Z,1676
2023-02-27T08:02:55.660Z,1668
2023-02-27T08:03:55.482Z,1664
2023-02-27T08:04:58.420Z,1660
2023-02-27T08:05:55.415Z,1660
2023-02-27T08:06:55.433Z,1660
2023-02-27T08:07:55.400Z,1648
2023-02-27T08:08:55.408Z,1640
2023-02-27T08:09:58.346Z,1644
2023-02-27T08:10:55.489Z,1636
2023-02-27T08:11:56.194Z,1640
2023-02-27T08:12:55.441Z,1636
2023-02-27T08:14:07.982Z,1632
2023-02-27T08:14:55.536Z,1628
2023-02-27T08:15:58.641Z,1628
2023-02-27T08:16:55.431Z,1624
2023-02-27T08:17:55.431Z,1620
2023-02-27T08:18:55.482Z,1612
2023-02-27T08:19:55.986Z,1612
2023-02-27T08:20:58.506Z,1624
2023-02-27T08:21:55.428Z,1608
2023-02-27T08:22:55.646Z,1608
2023-02-27T08:23:55.447Z,1612
2023-02-27T08:24:55.461Z,1600
2023-02-27T08:25:55.533Z,1604
2023-02-27T08:26:55.456Z,1608
2023-02-27T08:27:55.485Z,1604
2023-02-27T08:28:55.478Z,1616
2023-02-27T08:29:55.791Z,1612
2023-02-27T08:30:55.501Z,1604
2023-02-27T08:31:58.888Z,1596
2023-02-27T08:32:55.448Z,1596
2023-02-27T08:34:17.482Z,1588
2023-02-27T08:34:59.090Z,1592
2023-02-27T08:35:55.659Z,1600
2023-02-27T08:36:55.441Z,1592
2023-02-27T08:37:55.282Z,1592
2023-02-27T08:38:55.438Z,1592
2023-02-27T08:39:55.474Z,1588
2023-02-27T08:40:55.465Z,1592
2023-02-27T08:41:55.526Z,1596
2023-02-27T08:42:58.492Z,1580
2023-02-27T08:43:55.477Z,1584
2023-02-27T08:44:55.471Z,1584
2023-02-27T08:45:55.928Z,1576
2023-02-27T08:46:55.510Z,1576
2023-02-27T08:47:55.467Z,1572
2023-02-27T08:48:55.487Z,1576
2023-02-27T08:49:55.480Z,1592
2023-02-27T08:50:57.742Z,1612
2023-02-27T08:51:55.453Z,1580
2023-02-27T08:52:55.482Z,1592
2023-02-27T08:53:58.282Z,1592
2023-02-27T08:54:55.470Z,1560
2023-02-27T08:55:55.544Z,1464
2023-02-27T08:56:55.512Z,1588
2023-02-27T08:57:55.495Z,904
2023-02-27T08:58:56.136Z,1608
2023-02-27T08:59:55.724Z,1616
2023-02-27T09:00:55.726Z,756
2023-02-27T09:01:55.548Z,1540
2023-02-27T09:02:56.193Z,1640
2023-02-27T09:03:55.528Z,1092
2023-02-27T09:04:58.663Z,1660
2023-02-27T09:05:55.515Z,460
2023-02-27T09:06:55.503Z,448
2023-02-27T09:07:55.484Z,1596
2023-02-27T09:08:55.490Z,1572
2023-02-27T09:09:58.612Z,452
2023-02-27T09:10:55.497Z,904
2023-02-27T09:11:55.503Z,1632
2023-02-27T09:12:55.482Z,1716
2023-02-27T09:13:55.633Z,1652
2023-02-27T09:14:55.491Z,1596
2023-02-27T09:15:58.524Z,1676
2023-02-27T09:16:55.869Z,1672
2023-02-27T09:17:55.503Z,1684
2023-02-27T09:18:55.570Z,1688
2023-02-27T09:19:57.384Z,1620
2023-02-27T09:20:58.681Z,1704
2023-02-27T09:21:55.521Z,1692
2023-02-27T09:22:55.570Z,1724
2023-02-27T09:23:55.519Z,1624
2023-02-27T09:24:55.659Z,1676
2023-02-27T09:25:55.519Z,1632
2023-02-27T09:26:59.662Z,1684
2023-02-27T09:27:55.513Z,1696
2023-02-27T09:28:55.552Z,1676
2023-02-27T09:29:55.608Z,1676
2023-02-27T09:30:55.538Z,692
2023-02-27T09:31:59.184Z,588
2023-02-27T09:32:55.833Z,800
2023-02-27T09:33:55.564Z,516
2023-02-27T09:34:55.541Z,1288
2023-02-27T09:35:55.868Z,1628
2023-02-27T09:36:55.571Z,1684
2023-02-27T09:37:58.403Z,876
2023-02-27T09:38:55.553Z,652
2023-02-27T09:39:55.641Z,632
2023-02-27T09:40:55.573Z,608
2023-02-27T09:41:55.585Z,1624
2023-02-27T09:42:58.569Z,368
2023-02-27T09:43:55.550Z,372
2023-02-27T09:44:55.515Z,1788
2023-02-27T09:45:55.870Z,420
2023-02-27T09:46:55.518Z,1800
2023-02-27T09:47:55.552Z,1832
2023-02-27T09:48:58.467Z,1844
2023-02-27T09:49:55.517Z,1820
2023-02-27T09:50:55.532Z,1612
2023-02-27T09:51:57.856Z,1200
2023-02-27T09:52:55.599Z,1828
2023-02-27T09:53:57.029Z,1416
2023-02-27T09:54:55.530Z,1816
2023-02-27T09:55:55.542Z,1780
2023-02-27T09:56:55.544Z,1800
2023-02-27T09:57:55.549Z,1792
2023-02-27T09:58:55.582Z,1792
2023-02-27T09:59:57.392Z,1760
2023-02-27T10:00:55.561Z,1736
2023-02-27T10:01:55.568Z,1728
2023-02-27T10:02:55.867Z,1712
2023-02-27T10:03:55.590Z,1712
2023-02-27T10:04:59.364Z,1688
2023-02-27T10:05:55.552Z,1676
2023-02-27T10:06:55.588Z,1652
2023-02-27T10:07:55.564Z,1640
2023-02-27T10:08:55.647Z,1632
2023-02-27T10:09:55.603Z,1644
2023-02-27T10:10:55.566Z,1644
2023-02-27T10:11:55.598Z,1620
2023-02-27T10:12:55.624Z,1604
2023-02-27T10:13:55.580Z,1600
2023-02-27T10:14:55.592Z,1592
2023-02-27T10:15:55.558Z,1588
2023-02-27T10:16:55.811Z,1584
2023-02-27T10:17:55.667Z,1576
2023-02-27T10:18:55.594Z,1612
2023-02-27T10:19:55.639Z,1604
2023-02-27T10:20:58.528Z,1624
2023-02-27T10:21:55.595Z,1640
2023-02-27T10:22:55.616Z,1644
2023-02-27T10:23:55.633Z,1624
2023-02-27T10:24:55.742Z,1616
2023-02-27T10:25:55.616Z,1628
2023-02-27T10:26:55.593Z,1656
2023-02-27T10:27:55.588Z,1700
2023-02-27T10:28:55.651Z,1632
2023-02-27T10:29:55.600Z,1672
2023-02-27T10:30:55.930Z,660
2023-02-27T10:31:58.920Z,1636
2023-02-27T10:32:55.618Z,1612
2023-02-27T10:33:55.704Z,1596
2023-02-27T10:34:55.680Z,1588
2023-02-27T10:35:55.983Z,1584
2023-02-27T10:36:58.669Z,1580
2023-02-27T10:37:55.600Z,1584
2023-02-27T10:38:55.654Z,1568
2023-02-27T10:39:55.631Z,1556
2023-02-27T10:40:55.657Z,1568
2023-02-27T10:41:55.637Z,976
2023-02-27T10:42:58.395Z,1616
2023-02-27T10:43:55.638Z,1604
2023-02-27T10:44:55.621Z,1584
2023-02-27T10:45:55.971Z,1592
2023-02-27T10:46:58.622Z,1604
2023-02-27T10:47:58.617Z,352
2023-02-27T10:48:55.660Z,352
2023-02-27T10:49:55.668Z,328
2023-02-27T10:50:55.638Z,340
2023-02-27T10:51:55.709Z,352
2023-02-27T10:52:55.632Z,368
2023-02-27T10:53:55.658Z,372
2023-02-27T10:54:55.661Z,396
2023-02-27T10:55:55.630Z,376
2023-02-27T10:56:55.673Z,444
2023-02-27T10:57:55.703Z,448
2023-02-27T10:58:58.428Z,428
2023-02-27T10:59:55.646Z,368
2023-02-27T11:00:55.648Z,340
2023-02-27T11:01:55.773Z,332
2023-02-27T11:02:55.661Z,332
2023-02-27T11:03:55.694Z,312
2023-02-27T11:04:55.845Z,280
2023-02-27T11:05:55.675Z,264
2023-02-27T11:06:55.642Z,248
2023-02-27T11:07:55.709Z,236
2023-02-27T11:08:57.220Z,228
2023-02-27T11:09:58.554Z,228
2023-02-27T11:10:55.659Z,228
2023-02-27T11:11:55.667Z,236
2023-02-27T11:12:55.871Z,244
2023-02-27T11:13:55.697Z,260
2023-02-27T11:14:55.693Z,284
2023-02-27T11:15:55.880Z,316
2023-02-27T11:16:55.650Z,380
2023-02-27T11:17:55.658Z,1316
2023-02-27T11:18:55.688Z,1336
2023-02-27T11:19:55.675Z,1400
2023-02-27T11:20:58.429Z,1408
2023-02-27T11:21:55.699Z,1328
2023-02-27T11:22:55.666Z,1092
2023-02-27T11:23:55.888Z,380
2023-02-27T11:24:55.682Z,384
2023-02-27T11:25:58.493Z,396
2023-02-27T11:26:55.701Z,432
2023-02-27T11:27:55.668Z,920
2023-02-27T11:28:55.708Z,424
2023-02-27T11:29:55.918Z,396
2023-02-27T11:30:55.849Z,804
2023-02-27T11:31:59.051Z,756
2023-02-27T11:32:55.717Z,1364
2023-02-27T11:33:55.702Z,1412
2023-02-27T11:34:55.662Z,804
2023-02-27T11:36:04.372Z,768
2023-02-27T11:36:58.447Z,460
2023-02-27T11:37:55.684Z,448
2023-02-27T11:38:55.712Z,424
2023-02-27T11:39:55.764Z,408
2023-02-27T11:40:55.741Z,412
2023-02-27T11:41:55.785Z,420
2023-02-27T11:42:58.683Z,428
2023-02-27T11:43:55.683Z,428
2023-02-27T11:44:59.047Z,432
2023-02-27T11:46:53.711Z,408
2023-02-27T11:48:06.079Z,404
2023-02-27T11:49:06.240Z,392
2023-02-27T11:50:03.452Z,400
2023-02-27T11:51:03.430Z,424
2023-02-27T11:52:03.428Z,436
2023-02-27T11:53:03.391Z,448
2023-02-27T11:54:03.392Z,472
2023-02-27T11:55:03.414Z,500
2023-02-27T11:56:03.408Z,924
2023-02-27T11:57:03.404Z,616
2023-02-27T11:58:03.400Z,552
2023-02-27T11:59:03.419Z,560
2023-02-27T12:00:06.208Z,680
2023-02-27T12:01:03.388Z,696
2023-02-27T12:02:03.365Z,516
2023-02-27T12:03:03.636Z,516
2023-02-27T12:04:03.612Z,528
2023-02-27T12:05:03.376Z,756
2023-02-27T12:06:03.423Z,572
2023-02-27T12:07:03.428Z,600
2023-02-27T12:08:03.400Z,524
2023-02-27T12:09:03.413Z,464
2023-02-27T12:10:03.406Z,468
2023-02-27T12:11:19.533Z,516
2023-02-27T12:12:03.368Z,452
2023-02-27T12:13:03.400Z,440
2023-02-27T12:14:06.154Z,488
2023-02-27T12:15:04.714Z,696
2023-02-27T12:16:07.596Z,516
2023-02-27T12:17:03.385Z,968
2023-02-27T12:18:03.412Z,992
2023-02-27T12:19:03.478Z,924
2023-02-27T12:20:03.429Z,960
2023-02-27T12:21:03.416Z,576
2023-02-27T12:22:03.469Z,456
2023-02-27T12:23:03.395Z,408
2023-02-27T12:24:03.454Z,384
2023-02-27T12:25:03.419Z,312
2023-02-27T12:26:03.457Z,268
2023-02-27T12:27:03.535Z,260
2023-02-27T12:28:03.436Z,260
2023-02-27T12:29:03.526Z,256
2023-02-27T12:30:03.426Z,248
2023-02-27T12:31:03.406Z,244
2023-02-27T12:32:04.045Z,264
2023-02-27T12:33:03.463Z,240
2023-02-27T12:34:03.413Z,244
2023-02-27T12:35:03.471Z,260
2023-02-27T12:36:03.688Z,300
2023-02-27T12:37:03.447Z,340
2023-02-27T12:38:04.457Z,332
2023-02-27T12:39:03.448Z,364
2023-02-27T12:40:03.497Z,380
2023-02-27T12:41:03.402Z,580
2023-02-27T12:42:03.453Z,328
2023-02-27T12:43:06.272Z,612
2023-02-27T12:44:03.454Z,816
2023-02-27T12:45:03.504Z,772
2023-02-27T12:46:03.764Z,812
2023-02-27T12:47:03.438Z,812
2023-02-27T12:48:06.247Z,812
2023-02-27T12:49:03.467Z,600
2023-02-27T12:50:03.425Z,296
2023-02-27T12:51:03.451Z,360
2023-02-27T12:52:03.433Z,396
2023-02-27T12:53:03.464Z,752
2023-02-27T12:54:06.402Z,780
2023-02-27T12:55:03.435Z,372
2023-02-27T12:56:03.565Z,356
2023-02-27T12:57:03.471Z,432
2023-02-27T12:58:03.451Z,324
2023-02-27T12:59:06.511Z,372
2023-02-27T13:00:03.423Z,640
2023-02-27T13:01:03.629Z,380
2023-02-27T13:02:03.459Z,320
2023-02-27T13:03:03.504Z,284
2023-02-27T13:04:03.704Z,284
2023-02-27T13:05:06.536Z,296
2023-02-27T13:06:03.547Z,328
2023-02-27T13:07:03.462Z,792
2023-02-27T13:08:03.472Z,772
2023-02-27T13:09:03.458Z,776
2023-02-27T13:10:06.235Z,772
2023-02-27T13:11:03.498Z,784
2023-02-27T13:13:03.388Z,764
2023-02-27T13:14:03.539Z,748
2023-02-27T13:15:03.580Z,752
2023-02-27T13:16:06.781Z,768
2023-02-27T13:17:03.619Z,788
2023-02-27T13:18:03.680Z,808
2023-02-27T13:19:03.467Z,396
2023-02-27T13:20:03.556Z,352
2023-02-27T13:21:06.592Z,876
2023-02-27T13:22:03.496Z,884
2023-02-27T13:23:03.527Z,896
2023-02-27T13:24:03.486Z,916
2023-02-27T13:25:03.492Z,904
2023-02-27T13:26:03.512Z,900
2023-02-27T13:27:06.245Z,896
2023-02-27T13:28:03.556Z,892
2023-02-27T13:29:03.475Z,912
2023-02-27T13:30:03.484Z,936
2023-02-27T13:31:03.506Z,944
2023-02-27T13:32:07.047Z,944
2023-02-27T13:33:04.142Z,944
2023-02-27T13:34:03.525Z,896
2023-02-27T13:35:04.517Z,564
2023-02-27T13:36:03.831Z,432
2023-02-27T13:37:03.555Z,368
2023-02-27T13:38:06.374Z,348
2023-02-27T13:39:03.579Z,312
2023-02-27T13:40:03.563Z,284
2023-02-27T13:41:03.497Z,268
2023-02-27T13:42:03.542Z,256
2023-02-27T13:43:06.617Z,256
2023-02-27T13:44:03.498Z,236
2023-02-27T13:45:03.516Z,228
2023-02-27T13:46:03.855Z,224
2023-02-27T13:47:03.742Z,224
2023-02-27T13:48:03.877Z,224
2023-02-27T13:49:06.667Z,228
2023-02-27T13:50:03.509Z,236
2023-02-27T13:51:03.495Z,248
2023-02-27T13:52:03.732Z,372
2023-02-27T13:53:03.493Z,276
2023-02-27T13:54:06.395Z,288
2023-02-27T13:55:16.747Z,308
2023-02-27T13:56:03.513Z,368
2023-02-27T13:57:03.549Z,284
2023-02-27T13:58:03.579Z,284
2023-02-27T13:59:04.957Z,292
2023-02-27T14:00:03.589Z,312
2023-02-27T14:02:19.091Z,332
2023-02-27T14:03:07.412Z,880
2023-02-27T14:04:03.574Z,896
2023-02-27T14:05:08.064Z,864
2023-02-27T14:06:03.524Z,856
2023-02-27T14:07:03.545Z,928
2023-02-27T14:08:03.659Z,364
2023-02-27T14:09:20.938Z,732
2023-02-27T14:10:03.739Z,912